createdAt,value
2019-04-10T00:00:47.569Z,14.37
2019-04-10T00:03:33.661Z,17.93
2019-04-10T00:06:12.432Z,12.60
2019-04-10T00:08:50.558Z,16.47
2019-04-10T00:11:38.925Z,15.73
2019-04-10T00:14:26.117Z,15.37
2019-04-10T00:17:04.792Z,17.83
2019-04-10T00:19:56.010Z,14.53
2019-04-10T00:22:56.506Z,13.90
2019-04-10T00:25:37.028Z,13.90
2019-04-10T00:28:33.854Z,13.80
2019-04-10T00:31:11.627Z,15.53
2019-04-10T00:34:15.591Z,12.90
2019-04-10T00:37:01.792Z,13.90
2019-04-10T00:39:44.529Z,14.03
2019-04-10T00:42:21.037Z,15.57
2019-04-10T00:45:06.147Z,12.47
2019-04-10T00:47:59.729Z,14.70
2019-04-10T00:50:44.258Z,14.60
2019-04-10T00:53:27.283Z,14.07
2019-04-10T00:56:11.093Z,16.47
2019-04-10T00:58:55.527Z,20.40
2019-04-10T01:01:47.795Z,15.40
2019-04-10T01:04:31.479Z,15.13
2019-04-10T01:07:16.894Z,12.97
2019-04-10T01:10:01.955Z,13.43
2019-04-10T01:12:52.361Z,13.70
2019-04-10T01:15:38.497Z,14.77
2019-04-10T01:18:24.760Z,14.60
2019-04-10T01:20:57.740Z,13.20
2019-04-10T01:23:37.949Z,12.07
2019-04-10T01:26:14.934Z,13.83
2019-04-10T01:31:59.445Z,15.63
2019-04-10T01:34:46.873Z,15.57
2019-04-10T01:37:27.668Z,13.97
2019-04-10T01:40:10.753Z,12.45
2019-04-10T01:43:02.422Z,13.37
2019-04-10T01:45:39.794Z,14.40
2019-04-10T01:48:42.149Z,12.70
2019-04-10T01:51:35.154Z,12.50
2019-04-10T01:54:13.419Z,12.40
2019-04-10T01:57:01.677Z,12.97
2019-04-10T01:59:54.498Z,15.37
2019-04-10T02:02:51.746Z,13.43
2019-04-10T02:06:03.133Z,15.47
2019-04-10T02:08:38.413Z,10.60
2019-04-10T02:11:21.769Z,17.33
2019-04-10T02:14:18.310Z,14.60
2019-04-10T02:16:55.570Z,13.77
2019-04-10T02:19:56.722Z,18.50
2019-04-10T02:22:32.892Z,11.60
2019-04-10T02:25:17.949Z,13.60
2019-04-10T02:28:07.087Z,12.68
2019-04-10T02:30:58.684Z,11.17
2019-04-10T02:33:44.930Z,11.40
2019-04-10T02:36:23.611Z,11.50
2019-04-10T02:39:21.841Z,18.27
2019-04-10T02:41:52.459Z,12.23
2019-04-10T02:44:37.566Z,13.20
2019-04-10T02:47:14.739Z,12.53
2019-04-10T02:50:00.722Z,14.70
2019-04-10T02:52:40.156Z,12.63
2019-04-10T02:55:33.364Z,12.60
2019-04-10T02:58:18.625Z,14.07
2019-04-10T03:00:56.874Z,17.63
2019-04-10T03:03:44.567Z,12.63
2019-04-10T03:06:20.757Z,15.03
2019-04-10T03:09:32.385Z,13.17
2019-04-10T03:12:08.498Z,12.10
2019-04-10T03:14:49.795Z,13.30
2019-04-10T03:17:48.263Z,12.17
2019-04-10T03:20:42.687Z,14.27
2019-04-10T03:24:00.601Z,13.57
2019-04-10T03:26:48.040Z,13.50
2019-04-10T03:29:39.935Z,13.50
2019-04-10T03:33:03.340Z,13.67
2019-04-10T03:35:52.896Z,13.40
2019-04-10T03:38:55.304Z,14.53
2019-04-10T03:41:30.511Z,18.40
2019-04-10T03:47:35.341Z,12.30
2019-04-10T03:50:20.383Z,17.50
2019-04-10T03:53:03.118Z,15.27
2019-04-10T03:55:54.381Z,15.30
2019-04-10T03:58:41.670Z,14.70
2019-04-10T04:02:13.687Z,14.47
2019-04-10T04:05:05.150Z,13.90
2019-04-10T04:08:05.591Z,13.10
2019-04-10T04:11:09.204Z,15.50
2019-04-10T04:17:11.548Z,16.27
2019-04-10T04:20:26.605Z,12.23
2019-04-10T04:23:14.691Z,15.63
2019-04-10T04:26:03.584Z,17.27
2019-04-10T04:29:03.901Z,14.47
2019-04-10T04:32:15.559Z,16.63
2019-04-10T04:38:27.698Z,29.40
2019-04-10T04:41:42.794Z,13.03
2019-04-10T04:45:29.965Z,19.77
2019-04-10T04:59:30.538Z,14.33
2019-04-10T05:03:08.281Z,12.30
2019-04-10T05:10:11.103Z,15.77
2019-04-10T05:13:28.491Z,11.10
2019-04-10T05:16:55.565Z,19.43
2019-04-10T05:19:50.285Z,12.73
2019-04-10T05:23:17.996Z,14.27
2019-04-10T05:26:53.553Z,17.62
2019-04-10T05:30:16.435Z,12.90
2019-04-10T05:33:27.439Z,14.10
2019-04-10T05:36:37.764Z,11.77
2019-04-10T05:39:47.611Z,17.50
2019-04-10T05:42:44.913Z,10.10
2019-04-10T05:45:55.051Z,11.97
2019-04-10T05:48:52.563Z,15.00
2019-04-10T05:55:17.894Z,9.63
2019-04-10T05:58:27.958Z,13.17
2019-04-10T06:04:41.941Z,9.87
2019-04-10T06:07:53.845Z,11.40
2019-04-10T06:10:45.670Z,9.60
2019-04-10T06:13:52.747Z,7.77
2019-04-10T06:16:50.945Z,9.30
2019-04-10T06:22:54.913Z,9.70
2019-04-10T06:26:21.858Z,10.80
2019-04-10T06:29:19.093Z,7.93
2019-04-10T06:32:39.647Z,7.77
2019-04-10T06:35:50.764Z,7.20
2019-04-10T06:39:18.424Z,10.10
2019-04-10T06:42:08.636Z,8.67
2019-04-10T06:48:26.253Z,8.27
2019-04-10T06:51:18.756Z,11.03
2019-04-10T06:54:19.011Z,13.17
2019-04-10T06:57:26.983Z,8.13
2019-04-10T07:04:02.770Z,9.60
2019-04-10T07:10:45.372Z,8.27
2019-04-10T07:13:24.219Z,12.50
2019-04-10T07:16:48.558Z,11.40
2019-04-10T07:27:03.493Z,7.70
2019-04-10T07:29:58.804Z,10.03
2019-04-10T07:33:09.648Z,7.53
2019-04-10T07:36:48.446Z,8.20
2019-04-10T07:40:02.604Z,10.03
2019-04-10T07:43:20.734Z,9.20
2019-04-10T07:46:26.793Z,8.70
2019-04-10T07:49:29.966Z,7.07
2019-04-10T07:52:52.153Z,9.17
2019-04-10T07:59:13.063Z,9.50
2019-04-10T08:02:18.048Z,10.40
2019-04-10T08:05:35.900Z,8.60
2019-04-10T08:08:51.071Z,11.25
2019-04-10T08:11:45.041Z,14.43
2019-04-10T08:14:49.892Z,10.87
2019-04-10T08:21:27.351Z,8.43
2019-04-10T08:24:42.609Z,10.90
2019-04-10T08:28:04.354Z,10.00
2019-04-10T08:31:02.066Z,11.90
2019-04-10T08:33:48.396Z,11.80
2019-04-10T08:36:51.098Z,9.73
2019-04-10T08:40:07.455Z,9.03
2019-04-10T08:42:59.936Z,10.77
2019-04-10T08:46:24.015Z,10.43
2019-04-10T08:59:25.186Z,10.27
2019-04-10T09:02:31.407Z,9.77
2019-04-10T09:05:09.189Z,10.93
2019-04-10T09:08:00.440Z,12.80
2019-04-10T09:11:12.470Z,14.63
2019-04-10T09:14:37.079Z,19.80
2019-04-10T09:17:41.651Z,16.67
2019-04-10T09:20:28.891Z,14.13
2019-04-10T09:38:57.801Z,13.33
2019-04-10T09:45:26.412Z,12.77
2019-04-10T09:48:52.016Z,13.47
2019-04-10T09:51:58.606Z,18.73
2019-04-10T09:55:17.950Z,15.80
2019-04-10T10:02:34.262Z,16.33
2019-04-10T10:06:03.632Z,15.57
2019-04-10T10:09:19.674Z,15.73
2019-04-10T10:17:06.529Z,27.60
2019-04-10T10:24:16.266Z,14.70
2019-04-10T10:27:42.659Z,15.87
2019-04-10T10:31:11.642Z,16.40
2019-04-10T10:34:20.806Z,14.93
2019-04-10T10:37:50.477Z,15.90
2019-04-10T10:44:50.045Z,17.30
2019-04-10T10:48:30.248Z,22.20
2019-04-10T10:55:26.968Z,16.83
2019-04-10T10:59:00.859Z,18.23
2019-04-10T11:02:26.136Z,16.15
2019-04-10T11:05:42.992Z,17.93
2019-04-10T11:09:32.590Z,20.40
2019-04-10T11:18:06.334Z,17.83
2019-04-10T11:25:33.480Z,15.03
2019-04-10T11:33:30.635Z,17.03
2019-04-10T11:40:36.467Z,14.13
2019-04-10T11:47:35.955Z,15.70
2019-04-10T11:54:05.370Z,15.50
2019-04-10T11:57:30.821Z,20.93
2019-04-10T12:00:56.374Z,17.13
2019-04-10T12:04:19.521Z,22.80
2019-04-10T12:14:40.326Z,17.27
2019-04-10T12:22:03.136Z,15.57
2019-04-10T12:25:02.936Z,19.57
2019-04-10T12:27:55.870Z,16.27
2019-04-10T12:32:01.772Z,16.17
2019-04-10T12:43:00.712Z,13.43
2019-04-10T12:46:04.458Z,14.63
2019-04-10T12:49:49.916Z,13.40
2019-04-10T12:57:04.488Z,13.25
2019-04-10T13:00:04.600Z,12.87
2019-04-10T13:02:58.641Z,15.60
2019-04-10T13:05:51.541Z,11.60
2019-04-10T13:08:56.993Z,15.37
2019-04-10T13:12:02.336Z,13.90
2019-04-10T13:22:31.596Z,12.70
2019-04-10T13:26:10.865Z,14.33
2019-04-10T13:29:38.440Z,12.47
2019-04-10T13:47:07.166Z,12.40
2019-04-10T13:54:34.584Z,12.03
2019-04-10T13:56:57.885Z,12.93
2019-04-10T14:00:47.030Z,13.83
2019-04-10T14:03:52.440Z,13.13
2019-04-10T14:07:17.912Z,13.17
2019-04-10T14:10:29.697Z,15.05
2019-04-10T14:14:00.790Z,11.20
2019-04-10T14:24:07.291Z,12.93
2019-04-10T14:28:05.302Z,11.25
2019-04-10T14:31:24.603Z,11.50
2019-04-10T14:34:43.160Z,11.90
2019-04-10T14:48:03.805Z,10.97
2019-04-10T14:54:35.722Z,11.70
2019-04-10T15:04:19.264Z,10.77
2019-04-10T15:07:23.430Z,12.37
2019-04-10T15:22:40.042Z,10.00
2019-04-10T15:29:52.730Z,12.20
2019-04-10T15:37:24.941Z,9.80
2019-04-10T15:41:14.936Z,9.63
2019-04-10T15:44:23.734Z,12.70
2019-04-10T15:47:37.706Z,13.30
2019-04-10T15:50:39.574Z,10.23
2019-04-10T15:53:52.192Z,18.10
2019-04-10T16:07:38.329Z,10.80
2019-04-10T16:11:54.663Z,14.60
2019-04-10T19:25:10.509Z,11.17
2019-04-10T19:28:35.982Z,7.10
2019-04-10T19:32:20.365Z,13.33
2019-04-10T19:38:31.508Z,7.77
2019-04-10T19:45:43.810Z,13.20
2019-04-10T19:48:37.611Z,11.17
2019-04-10T19:55:03.273Z,9.13
2019-04-10T19:58:01.801Z,7.70
2019-04-10T20:00:53.411Z,7.13
2019-04-10T20:04:20.684Z,7.90
2019-04-10T20:07:23.005Z,8.80
2019-04-10T20:14:15.410Z,8.93
2019-04-10T20:16:57.905Z,7.37
2019-04-10T20:20:11.227Z,9.80
2019-04-10T20:23:08.049Z,6.97
2019-04-10T20:26:14.763Z,14.83
2019-04-10T20:29:07.813Z,6.70
2019-04-10T20:31:55.353Z,7.47
2019-04-10T20:34:58.768Z,6.93
2019-04-10T20:38:11.414Z,6.87
2019-04-10T20:41:19.360Z,6.80
2019-04-10T20:43:57.376Z,7.97
2019-04-10T20:47:06.636Z,7.47
2019-04-10T20:49:56.013Z,8.53
2019-04-10T20:52:43.208Z,12.30
2019-04-10T20:56:11.018Z,10.20
2019-04-10T20:59:12.030Z,6.40
2019-04-10T21:02:09.711Z,9.97
2019-04-10T21:05:09.718Z,6.10
2019-04-10T21:08:02.001Z,7.00
2019-04-10T21:11:07.565Z,7.23
2019-04-10T21:13:48.883Z,8.47
2019-04-10T21:16:47.709Z,9.33
2019-04-10T21:19:25.509Z,9.27
2019-04-10T21:22:24.474Z,8.47
2019-04-10T21:25:39.412Z,7.17
2019-04-10T21:28:22.636Z,9.13
2019-04-10T21:31:37.018Z,6.07
2019-04-10T21:37:38.622Z,6.30
2019-04-10T21:40:34.818Z,9.07
2019-04-10T21:43:34.512Z,6.60
2019-04-10T21:46:36.774Z,7.47
2019-04-10T21:49:17.091Z,7.83
2019-04-10T21:52:23.063Z,6.63
2019-04-10T21:55:15.457Z,7.37
2019-04-10T21:58:13.031Z,6.50
2019-04-10T22:01:28.326Z,6.53
2019-04-10T22:07:28.948Z,7.47
2019-04-10T22:10:25.988Z,10.70
2019-04-10T22:13:35.803Z,7.57
2019-04-10T22:16:24.595Z,6.70
2019-04-10T22:19:06.528Z,14.30
2019-04-10T22:21:56.124Z,6.90
2019-04-10T22:24:43.972Z,8.40
2019-04-10T22:27:33.795Z,6.97
2019-04-10T22:30:30.188Z,7.90
2019-04-10T22:33:32.007Z,6.83
2019-04-10T22:37:02.198Z,9.13
2019-04-10T22:39:50.636Z,5.07
2019-04-10T22:45:46.579Z,6.60
2019-04-10T22:48:31.109Z,6.37
2019-04-10T22:51:29.153Z,9.67
2019-04-10T22:54:40.909Z,6.40
2019-04-10T23:00:05.797Z,8.23
2019-04-10T23:03:15.811Z,5.70
2019-04-10T23:05:59.077Z,10.83
2019-04-10T23:08:37.967Z,7.73
2019-04-10T23:11:29.808Z,6.43
2019-04-10T23:14:04.601Z,9.67
2019-04-10T23:17:10.775Z,7.20
2019-04-10T23:19:56.922Z,6.00
2019-04-10T23:22:54.871Z,5.83
2019-04-10T23:25:42.656Z,7.03
2019-04-10T23:28:34.127Z,6.17
2019-04-10T23:31:13.214Z,8.17
2019-04-10T23:34:06.259Z,6.37
2019-04-10T23:36:44.390Z,5.63
2019-04-10T23:39:32.344Z,6.17
2019-04-10T23:42:25.394Z,5.90
2019-04-10T23:48:37.092Z,5.47
2019-04-10T23:57:43.404Z,6.83
